sensor_id;sensor_type;location;lat;lon;timestamp;P1;durP1;ratioP1;P2;durP2;ratioP2
4652;SDS011;9900;48.738;9.306;2024-03-23T00:52:03;11.70;;;6.17;;
4652;SDS011;9900;48.738;9.306;2024-03-23T00:54:30;10.93;;;7.30;;
4652;SDS011;9900;48.738;9.306;2024-03-23T00:56:58;13.40;;;7.17;;
4652;SDS011;9900;48.738;9.306;2024-03-23T00:59:25;14.33;;;8.17;;
4652;SDS011;9900;48.738;9.306;2024-03-23T01:01:54;14.17;;;7.03;;
4652;SDS011;9900;48.738;9.306;2024-03-23T01:04:21;13.20;;;6.33;;
4652;SDS011;9900;48.738;9.306;2024-03-23T01:06:49;13.50;;;6.97;;
4652;SDS011;9900;48.738;9.306;2024-03-23T01:09:18;13.70;;;6.80;;
4652;SDS011;9900;48.738;9.306;2024-03-23T01:11:45;12.20;;;6.77;;
4652;SDS011;9900;48.738;9.306;2024-03-23T01:14:12;9.27;;;5.90;;
4652;SDS011;9900;48.738;9.306;2024-03-23T01:16:40;11.83;;;6.63;;
4652;SDS011;9900;48.738;9.306;2024-03-23T01:19:07;9.60;;;5.70;;
4652;SDS011;9900;48.738;9.306;2024-03-23T01:21:35;8.57;;;6.43;;
4652;SDS011;9900;48.738;9.306;2024-03-23T01:24:02;11.90;;;6.30;;
4652;SDS011;9900;48.738;9.306;2024-03-23T01:26:31;13.73;;;5.90;;
4652;SDS011;9900;48.738;9.306;2024-03-23T01:28:58;13.07;;;6.87;;
4652;SDS011;9900;48.738;9.306;2024-03-23T01:31:26;9.03;;;5.97;;
4652;SDS011;9900;48.738;9.306;2024-03-23T01:33:53;13.97;;;6.40;;
4652;SDS011;9900;48.738;9.306;2024-03-23T01:36:20;10.80;;;6.70;;
4652;SDS011;9900;48.738;9.306;2024-03-23T01:38:47;11.97;;;6.73;;
4652;SDS011;9900;48.738;9.306;2024-03-23T01:41:15;12.37;;;6.43;;
4652;SDS011;9900;48.738;9.306;2024-03-23T01:43:43;12.43;;;6.50;;
4652;SDS011;9900;48.738;9.306;2024-03-23T01:46:11;13.67;;;6.93;;
4652;SDS011;9900;48.738;9.306;2024-03-23T01:48:38;13.97;;;6.63;;
4652;SDS011;9900;48.738;9.306;2024-03-23T01:51:06;8.47;;;6.03;;
4652;SDS011;9900;48.738;9.306;2024-03-23T01:53:33;13.10;;;6.43;;
4652;SDS011;9900;48.738;9.306;2024-03-23T01:56:01;13.50;;;6.30;;
4652;SDS011;9900;48.738;9.306;2024-03-23T01:58:28;5.83;;;5.23;;
4652;SDS011;9900;48.738;9.306;2024-03-23T02:00:58;17.43;;;6.47;;
4652;SDS011;9900;48.738;9.306;2024-03-23T02:03:25;13.70;;;6.63;;
4652;SDS011;9900;48.738;9.306;2024-03-23T02:05:54;10.00;;;6.17;;
4652;SDS011;9900;48.738;9.306;2024-03-23T02:08:22;12.67;;;6.67;;
4652;SDS011;9900;48.738;9.306;2024-03-23T02:10:51;11.40;;;5.90;;
4652;SDS011;9900;48.738;9.306;2024-03-23T02:13:18;8.37;;;6.30;;
4652;SDS011;9900;48.738;9.306;2024-03-23T02:15:46;9.70;;;6.47;;
4652;SDS011;9900;48.738;9.306;2024-03-23T02:18:14;16.13;;;6.27;;
4652;SDS011;9900;48.738;9.306;2024-03-23T02:20:42;12.77;;;6.20;;
4652;SDS011;9900;48.738;9.306;2024-03-23T02:23:14;15.70;;;7.27;;
4652;SDS011;9900;48.738;9.306;2024-03-23T02:25:42;9.63;;;6.27;;
4652;SDS011;9900;48.738;9.306;2024-03-23T02:28:10;9.90;;;6.37;;
4652;SDS011;9900;48.738;9.306;2024-03-23T02:30:38;10.00;;;6.10;;
4652;SDS011;9900;48.738;9.306;2024-03-23T02:33:04;11.13;;;6.70;;
4652;SDS011;9900;48.738;9.306;2024-03-23T02:35:32;10.83;;;6.60;;
4652;SDS011;9900;48.738;9.306;2024-03-23T02:38:00;8.00;;;6.20;;
4652;SDS011;9900;48.738;9.306;2024-03-23T02:40:29;9.90;;;6.00;;
4652;SDS011;9900;48.738;9.306;2024-03-23T02:42:55;12.83;;;6.53;;
4652;SDS011;9900;48.738;9.306;2024-03-23T02:45:23;7.67;;;6.10;;
4652;SDS011;9900;48.738;9.306;2024-03-23T02:47:50;17.73;;;6.43;;
4652;SDS011;9900;48.738;9.306;2024-03-23T02:50:18;9.40;;;6.60;;
4652;SDS011;9900;48.738;9.306;2024-03-23T02:52:45;12.90;;;6.97;;
4652;SDS011;9900;48.738;9.306;2024-03-23T02:55:13;10.73;;;6.43;;
4652;SDS011;9900;48.738;9.306;2024-03-23T02:57:41;10.13;;;6.17;;
4652;SDS011;9900;48.738;9.306;2024-03-23T03:00:10;10.33;;;6.03;;
4652;SDS011;9900;48.738;9.306;2024-03-23T03:02:37;11.07;;;6.17;;
4652;SDS011;9900;48.738;9.306;2024-03-23T03:05:05;9.53;;;6.03;;
4652;SDS011;9900;48.738;9.306;2024-03-23T03:07:32;10.87;;;6.80;;
4652;SDS011;9900;48.738;9.306;2024-03-23T03:10:00;15.10;;;7.37;;
4652;SDS011;9900;48.738;9.306;2024-03-23T03:12:27;10.13;;;6.20;;
4652;SDS011;9900;48.738;9.306;2024-03-23T03:14:56;13.70;;;7.00;;
4652;SDS011;9900;48.738;9.306;2024-03-23T03:17:23;10.80;;;6.73;;
4652;SDS011;9900;48.738;9.306;2024-03-23T03:19:51;11.63;;;6.70;;
4652;SDS011;9900;48.738;9.306;2024-03-23T03:22:21;16.40;;;6.97;;
4652;SDS011;9900;48.738;9.306;2024-03-23T03:24:50;7.97;;;5.80;;
4652;SDS011;9900;48.738;9.306;2024-03-23T03:27:17;14.13;;;6.60;;
4652;SDS011;9900;48.738;9.306;2024-03-23T03:29:44;14.70;;;6.50;;
4652;SDS011;9900;48.738;9.306;2024-03-23T03:32:13;12.57;;;6.57;;
4652;SDS011;9900;48.738;9.306;2024-03-23T03:34:40;12.03;;;6.90;;
4652;SDS011;9900;48.738;9.306;2024-03-23T03:37:07;11.57;;;5.43;;
4652;SDS011;9900;48.738;9.306;2024-03-23T03:39:35;11.40;;;6.27;;
4652;SDS011;9900;48.738;9.306;2024-03-23T03:42:02;8.97;;;6.00;;
4652;SDS011;9900;48.738;9.306;2024-03-23T03:44:33;11.50;;;6.30;;
4652;SDS011;9900;48.738;9.306;2024-03-23T03:46:59;9.00;;;6.27;;
4652;SDS011;9900;48.738;9.306;2024-03-23T03:49:29;8.00;;;5.53;;
4652;SDS011;9900;48.738;9.306;2024-03-23T03:51:55;14.03;;;6.00;;
4652;SDS011;9900;48.738;9.306;2024-03-23T03:54:23;7.70;;;5.63;;
4652;SDS011;9900;48.738;9.306;2024-03-23T03:56:50;9.30;;;5.60;;
4652;SDS011;9900;48.738;9.306;2024-03-23T03:59:18;8.03;;;6.00;;
4652;SDS011;9900;48.738;9.306;2024-03-23T04:01:44;8.80;;;6.20;;
4652;SDS011;9900;48.738;9.306;2024-03-23T04:04:12;9.37;;;5.67;;
4652;SDS011;9900;48.738;9.306;2024-03-23T04:06:41;13.90;;;6.70;;
4652;SDS011;9900;48.738;9.306;2024-03-23T04:09:10;10.47;;;6.93;;
4652;SDS011;9900;48.738;9.306;2024-03-23T04:11:36;17.00;;;7.37;;
4652;SDS011;9900;48.738;9.306;2024-03-23T04:14:04;11.80;;;6.70;;
4652;SDS011;9900;48.738;9.306;2024-03-23T04:16:33;12.40;;;6.77;;
4652;SDS011;9900;48.738;9.306;2024-03-23T04:19:01;12.33;;;7.30;;
4652;SDS011;9900;48.738;9.306;2024-03-23T04:21:28;9.93;;;7.07;;
4652;SDS011;9900;48.738;9.306;2024-03-23T04:23:57;11.40;;;6.27;;
4652;SDS011;9900;48.738;9.306;2024-03-23T04:26:24;11.57;;;8.40;;
4652;SDS011;9900;48.738;9.306;2024-03-23T04:28:53;14.50;;;8.50;;
4652;SDS011;9900;48.738;9.306;2024-03-23T04:31:20;11.00;;;7.20;;
4652;SDS011;9900;48.738;9.306;2024-03-23T04:33:48;11.60;;;7.00;;
4652;SDS011;9900;48.738;9.306;2024-03-23T04:36:14;9.03;;;6.90;;
4652;SDS011;9900;48.738;9.306;2024-03-23T04:38:42;9.43;;;6.80;;
4652;SDS011;9900;48.738;9.306;2024-03-23T04:41:13;10.80;;;6.60;;
4652;SDS011;9900;48.738;9.306;2024-03-23T04:43:41;9.63;;;6.70;;
4652;SDS011;9900;48.738;9.306;2024-03-23T04:46:09;12.50;;;6.43;;
4652;SDS011;9900;48.738;9.306;2024-03-23T04:48:37;15.33;;;7.00;;
4652;SDS011;9900;48.738;9.306;2024-03-23T04:51:04;8.30;;;5.70;;
4652;SDS011;9900;48.738;9.306;2024-03-23T04:53:32;8.10;;;5.80;;
4652;SDS011;9900;48.738;9.306;2024-03-23T04:56:00;11.50;;;5.33;;
4652;SDS011;9900;48.738;9.306;2024-03-23T04:58:29;7.03;;;5.20;;
4652;SDS011;9900;48.738;9.306;2024-03-23T05:00:56;11.70;;;6.17;;
4652;SDS011;9900;48.738;9.306;2024-03-23T05:03:24;9.10;;;5.70;;
4652;SDS011;9900;48.738;9.306;2024-03-23T05:05:52;6.67;;;5.70;;
4652;SDS011;9900;48.738;9.306;2024-03-23T05:08:19;7.53;;;4.80;;
4652;SDS011;9900;48.738;9.306;2024-03-23T05:10:47;4.30;;;3.90;;
4652;SDS011;9900;48.738;9.306;2024-03-23T05:13:13;7.93;;;4.93;;
4652;SDS011;9900;48.738;9.306;2024-03-23T05:15:43;7.77;;;5.03;;
4652;SDS011;9900;48.738;9.306;2024-03-23T05:18:09;9.40;;;5.77;;
4652;SDS011;9900;48.738;9.306;2024-03-23T05:20:37;8.33;;;6.33;;
4652;SDS011;9900;48.738;9.306;2024-03-23T05:23:04;8.40;;;6.70;;
4652;SDS011;9900;48.738;9.306;2024-03-23T05:25:32;11.43;;;6.40;;
4652;SDS011;9900;48.738;9.306;2024-03-23T05:27:59;8.73;;;6.97;;
4652;SDS011;9900;48.738;9.306;2024-03-23T05:30:26;14.53;;;8.23;;
4652;SDS011;9900;48.738;9.306;2024-03-23T05:32:54;10.30;;;7.60;;
4652;SDS011;9900;48.738;9.306;2024-03-23T05:35:22;11.40;;;8.33;;
4652;SDS011;9900;48.738;9.306;2024-03-23T05:37:49;12.30;;;7.90;;
4652;SDS011;9900;48.738;9.306;2024-03-23T05:40:17;14.73;;;9.37;;
4652;SDS011;9900;48.738;9.306;2024-03-23T05:42:44;12.90;;;9.67;;
4652;SDS011;9900;48.738;9.306;2024-03-23T05:45:11;16.60;;;10.17;;
4652;SDS011;9900;48.738;9.306;2024-03-23T05:47:38;15.07;;;9.30;;
4652;SDS011;9900;48.738;9.306;2024-03-23T05:50:08;12.60;;;9.77;;
4652;SDS011;9900;48.738;9.306;2024-03-23T05:52:38;12.63;;;9.30;;
4652;SDS011;9900;48.738;9.306;2024-03-23T05:55:06;11.90;;;9.40;;
4652;SDS011;9900;48.738;9.306;2024-03-23T05:57:34;13.80;;;10.43;;
4652;SDS011;9900;48.738;9.306;2024-03-23T06:00:02;16.50;;;9.27;;
4652;SDS011;9900;48.738;9.306;2024-03-23T06:02:30;12.23;;;9.27;;
4652;SDS011;9900;48.738;9.306;2024-03-23T06:04:57;12.27;;;9.00;;
4652;SDS011;9900;48.738;9.306;2024-03-23T06:07:26;14.40;;;9.70;;
4652;SDS011;9900;48.738;9.306;2024-03-23T06:09:53;11.80;;;9.00;;
4652;SDS011;9900;48.738;9.306;2024-03-23T06:12:20;10.53;;;8.07;;
4652;SDS011;9900;48.738;9.306;2024-03-23T06:14:48;10.03;;;6.67;;
4652;SDS011;9900;48.738;9.306;2024-03-23T06:17:16;9.90;;;7.00;;
4652;SDS011;9900;48.738;9.306;2024-03-23T06:19:44;7.87;;;5.93;;
4652;SDS011;9900;48.738;9.306;2024-03-23T06:22:11;7.67;;;5.50;;
4652;SDS011;9900;48.738;9.306;2024-03-23T06:24:40;8.07;;;5.73;;
4652;SDS011;9900;48.738;9.306;2024-03-23T06:27:07;6.10;;;4.23;;
4652;SDS011;9900;48.738;9.306;2024-03-23T06:29:35;3.70;;;3.10;;
4652;SDS011;9900;48.738;9.306;2024-03-23T06:32:02;5.23;;;3.10;;
4652;SDS011;9900;48.738;9.306;2024-03-23T06:34:30;3.90;;;3.13;;
4652;SDS011;9900;48.738;9.306;2024-03-23T06:36:57;2.90;;;2.60;;
4652;SDS011;9900;48.738;9.306;2024-03-23T06:39:25;4.17;;;2.10;;
4652;SDS011;9900;48.738;9.306;2024-03-23T06:41:53;3.90;;;2.67;;
4652;SDS011;9900;48.738;9.306;2024-03-23T06:44:21;7.70;;;2.90;;
4652;SDS011;9900;48.738;9.306;2024-03-23T06:46:48;3.10;;;2.20;;
4652;SDS011;9900;48.738;9.306;2024-03-23T06:49:17;4.03;;;1.50;;
4652;SDS011;9900;48.738;9.306;2024-03-23T06:51:44;2.50;;;1.30;;
4652;SDS011;9900;48.738;9.306;2024-03-23T06:54:12;1.30;;;1.20;;
4652;SDS011;9900;48.738;9.306;2024-03-23T06:56:39;0.80;;;0.80;;
4652;SDS011;9900;48.738;9.306;2024-03-23T06:59:08;1.63;;;1.10;;
4652;SDS011;9900;48.738;9.306;2024-03-23T07:01:35;1.23;;;1.07;;
4652;SDS011;9900;48.738;9.306;2024-03-23T07:04:03;1.10;;;1.00;;
4652;SDS011;9900;48.738;9.306;2024-03-23T07:06:30;0.87;;;0.80;;
4652;SDS011;9900;48.738;9.306;2024-03-23T07:08:58;1.43;;;0.60;;
4652;SDS011;9900;48.738;9.306;2024-03-23T07:11:25;0.60;;;0.60;;
4652;SDS011;9900;48.738;9.306;2024-03-23T07:13:53;0.63;;;0.60;;
4652;SDS011;9900;48.738;9.306;2024-03-23T07:16:22;0.60;;;0.50;;
4652;SDS011;9900;48.738;9.306;2024-03-23T07:18:50;0.63;;;0.50;;
4652;SDS011;9900;48.738;9.306;2024-03-23T07:21:17;0.60;;;0.53;;
4652;SDS011;9900;48.738;9.306;2024-03-23T07:23:45;0.70;;;0.60;;
4652;SDS011;9900;48.738;9.306;2024-03-23T07:26:11;0.70;;;0.60;;
4652;SDS011;9900;48.738;9.306;2024-03-23T07:28:40;0.70;;;0.60;;
4652;SDS011;9900;48.738;9.306;2024-03-23T07:31:10;8.73;;;1.40;;
4652;SDS011;9900;48.738;9.306;2024-03-23T07:33:42;0.87;;;0.60;;
4652;SDS011;9900;48.738;9.306;2024-03-23T07:36:10;0.60;;;0.50;;
4652;SDS011;9900;48.738;9.306;2024-03-23T07:38:40;0.50;;;0.50;;
4652;SDS011;9900;48.738;9.306;2024-03-23T07:41:07;1.33;;;0.53;;
4652;SDS011;9900;48.738;9.306;2024-03-23T07:43:36;0.80;;;0.60;;
4652;SDS011;9900;48.738;9.306;2024-03-23T07:46:03;0.60;;;0.50;;
4652;SDS011;9900;48.738;9.306;2024-03-23T07:48:31;0.80;;;0.60;;
4652;SDS011;9900;48.738;9.306;2024-03-23T07:51:00;0.60;;;0.50;;
4652;SDS011;9900;48.738;9.306;2024-03-23T07:53:29;1.93;;;0.60;;
4652;SDS011;9900;48.738;9.306;2024-03-23T07:55:57;0.70;;;0.50;;
4652;SDS011;9900;48.738;9.306;2024-03-23T07:58:25;0.60;;;0.53;;
4652;SDS011;9900;48.738;9.306;2024-03-23T08:00:52;0.60;;;0.50;;
4652;SDS011;9900;48.738;9.306;2024-03-23T08:03:20;0.50;;;0.40;;
4652;SDS011;9900;48.738;9.306;2024-03-23T08:05:47;0.87;;;0.53;;
4652;SDS011;9900;48.738;9.306;2024-03-23T08:08:16;1.37;;;0.50;;
4652;SDS011;9900;48.738;9.306;2024-03-23T08:10:49;0.70;;;0.60;;
4652;SDS011;9900;48.738;9.306;2024-03-23T08:13:17;1.37;;;0.50;;
4652;SDS011;9900;48.738;9.306;2024-03-23T08:15:44;0.60;;;0.50;;
4652;SDS011;9900;48.738;9.306;2024-03-23T08:18:13;0.80;;;0.60;;
4652;SDS011;9900;48.738;9.306;2024-03-23T08:20:39;0.60;;;0.60;;
4652;SDS011;9900;48.738;9.306;2024-03-23T08:23:07;1.33;;;0.87;;
4652;SDS011;9900;48.738;9.306;2024-03-23T08:25:36;2.90;;;0.73;;
4652;SDS011;9900;48.738;9.306;2024-03-23T08:28:04;0.70;;;0.60;;
4652;SDS011;9900;48.738;9.306;2024-03-23T08:30:31;0.63;;;0.60;;
4652;SDS011;9900;48.738;9.306;2024-03-23T08:32:59;1.63;;;0.60;;
4652;SDS011;9900;48.738;9.306;2024-03-23T08:35:25;1.00;;;0.70;;
4652;SDS011;9900;48.738;9.306;2024-03-23T08:37:53;0.70;;;0.60;;
4652;SDS011;9900;48.738;9.306;2024-03-23T08:40:20;1.30;;;1.10;;
4652;SDS011;9900;48.738;9.306;2024-03-23T08:42:50;0.60;;;0.60;;
4652;SDS011;9900;48.738;9.306;2024-03-23T08:45:16;1.57;;;0.70;;
4652;SDS011;9900;48.738;9.306;2024-03-23T08:47:44;1.00;;;0.80;;
4652;SDS011;9900;48.738;9.306;2024-03-23T08:50:11;1.17;;;0.70;;
4652;SDS011;9900;48.738;9.306;2024-03-23T08:52:39;0.93;;;0.70;;
4652;SDS011;9900;48.738;9.306;2024-03-23T08:55:06;0.70;;;0.70;;
4652;SDS011;9900;48.738;9.306;2024-03-23T08:57:36;1.87;;;0.77;;
4652;SDS011;9900;48.738;9.306;2024-03-23T09:00:04;1.17;;;0.63;;
4652;SDS011;9900;48.738;9.306;2024-03-23T09:02:35;0.73;;;0.73;;
4652;SDS011;9900;48.738;9.306;2024-03-23T09:05:02;0.60;;;0.60;;
4652;SDS011;9900;48.738;9.306;2024-03-23T09:07:31;1.50;;;0.80;;
4652;SDS011;9900;48.738;9.306;2024-03-23T09:09:58;1.73;;;0.80;;
4652;SDS011;9900;48.738;9.306;2024-03-23T09:12:26;1.20;;;1.00;;
4652;SDS011;9900;48.738;9.306;2024-03-23T09:14:53;4.00;;;1.20;;
4652;SDS011;9900;48.738;9.306;2024-03-23T09:17:22;4.73;;;3.13;;
4652;SDS011;9900;48.738;9.306;2024-03-23T09:19:49;2.53;;;1.37;;
4652;SDS011;9900;48.738;9.306;2024-03-23T09:22:16;2.17;;;1.20;;
4652;SDS011;9900;48.738;9.306;2024-03-23T09:24:43;3.63;;;2.00;;
4652;SDS011;9900;48.738;9.306;2024-03-23T09:27:11;6.40;;;1.53;;
4652;SDS011;9900;48.738;9.306;2024-03-23T09:29:38;2.90;;;1.53;;
4652;SDS011;9900;48.738;9.306;2024-03-23T09:32:06;2.00;;;1.40;;
4652;SDS011;9900;48.738;9.306;2024-03-23T09:34:35;5.60;;;1.40;;
4652;SDS011;9900;48.738;9.306;2024-03-23T09:37:03;1.40;;;1.10;;
4652;SDS011;9900;48.738;9.306;2024-03-23T09:39:30;4.20;;;1.53;;
4652;SDS011;9900;48.738;9.306;2024-03-23T09:41:58;4.87;;;1.60;;
4652;SDS011;9900;48.738;9.306;2024-03-23T09:44:25;3.83;;;1.90;;
4652;SDS011;9900;48.738;9.306;2024-03-23T09:46:55;4.93;;;1.60;;
4652;SDS011;9900;48.738;9.306;2024-03-23T09:49:22;4.13;;;1.73;;
4652;SDS011;9900;48.738;9.306;2024-03-23T09:51:52;5.57;;;1.93;;
4652;SDS011;9900;48.738;9.306;2024-03-23T09:54:21;2.57;;;1.60;;
4652;SDS011;9900;48.738;9.306;2024-03-23T09:56:49;5.40;;;1.97;;
4652;SDS011;9900;48.738;9.306;2024-03-23T09:59:16;7.20;;;2.00;;
4652;SDS011;9900;48.738;9.306;2024-03-23T10:01:43;13.00;;;2.17;;
4652;SDS011;9900;48.738;9.306;2024-03-23T10:04:11;9.23;;;3.37;;
4652;SDS011;9900;48.738;9.306;2024-03-23T10:06:39;5.33;;;2.67;;
4652;SDS011;9900;48.738;9.306;2024-03-23T10:09:10;6.77;;;2.30;;
4652;SDS011;9900;48.738;9.306;2024-03-23T10:11:44;2.30;;;1.70;;
4652;SDS011;9900;48.738;9.306;2024-03-23T10:14:20;7.70;;;2.13;;
4652;SDS011;9900;48.738;9.306;2024-03-23T10:16:59;3.50;;;2.00;;
4652;SDS011;9900;48.738;9.306;2024-03-23T10:19:40;8.17;;;2.30;;
4652;SDS011;9900;48.738;9.306;2024-03-23T10:22:09;5.00;;;2.10;;
4652;SDS011;9900;48.738;9.306;2024-03-23T10:24:37;8.60;;;2.60;;
4652;SDS011;9900;48.738;9.306;2024-03-23T10:27:05;4.57;;;2.03;;
4652;SDS011;9900;48.738;9.306;2024-03-23T10:29:32;4.47;;;2.37;;
4652;SDS011;9900;48.738;9.306;2024-03-23T10:32:09;5.60;;;1.93;;
4652;SDS011;9900;48.738;9.306;2024-03-23T10:34:37;7.73;;;2.70;;
4652;SDS011;9900;48.738;9.306;2024-03-23T10:37:05;7.40;;;2.17;;
4652;SDS011;9900;48.738;9.306;2024-03-23T10:39:33;4.60;;;2.03;;
4652;SDS011;9900;48.738;9.306;2024-03-23T10:42:04;5.13;;;2.30;;
4652;SDS011;9900;48.738;9.306;2024-03-23T10:44:31;8.00;;;2.70;;
4652;SDS011;9900;48.738;9.306;2024-03-23T10:46:59;5.90;;;2.47;;
4652;SDS011;9900;48.738;9.306;2024-03-23T10:49:28;10.43;;;2.10;;
4652;SDS011;9900;48.738;9.306;2024-03-23T10:51:57;7.40;;;2.40;;
4652;SDS011;9900;48.738;9.306;2024-03-23T10:54:24;6.40;;;2.20;;
4652;SDS011;9900;48.738;9.306;2024-03-23T10:56:53;3.93;;;1.97;;
4652;SDS011;9900;48.738;9.306;2024-03-23T10:59:25;6.53;;;2.20;;
4652;SDS011;9900;48.738;9.306;2024-03-23T11:01:54;3.73;;;1.87;;
4652;SDS011;9900;48.738;9.306;2024-03-23T11:04:31;4.70;;;2.10;;
4652;SDS011;9900;48.738;9.306;2024-03-23T11:06:59;3.53;;;2.30;;
4652;SDS011;9900;48.738;9.306;2024-03-23T11:09:39;4.37;;;2.33;;
4652;SDS011;9900;48.738;9.306;2024-03-23T11:12:26;4.37;;;2.50;;
4652;SDS011;9900;48.738;9.306;2024-03-23T11:14:56;3.77;;;1.97;;
4652;SDS011;9900;48.738;9.306;2024-03-23T11:17:26;6.30;;;1.30;;
4652;SDS011;9900;48.738;9.306;2024-03-23T11:19:53;2.80;;;1.47;;
4652;SDS011;9900;48.738;9.306;2024-03-23T11:22:39;1.53;;;1.30;;
4652;SDS011;9900;48.738;9.306;2024-03-23T11:25:13;3.20;;;1.40;;
4652;SDS011;9900;48.738;9.306;2024-03-23T11:27:44;3.10;;;1.10;;
4652;SDS011;9900;48.738;9.306;2024-03-23T11:30:17;2.13;;;1.30;;
4652;SDS011;9900;48.738;9.306;2024-03-23T11:32:46;2.83;;;1.63;;
4652;SDS011;9900;48.738;9.306;2024-03-23T11:35:27;3.27;;;1.50;;
4652;SDS011;9900;48.738;9.306;2024-03-23T11:38:08;2.30;;;1.43;;
4652;SDS011;9900;48.738;9.306;2024-03-23T11:40:36;2.47;;;1.50;;
4652;SDS011;9900;48.738;9.306;2024-03-23T11:43:06;1.33;;;1.23;;
4652;SDS011;9900;48.738;9.306;2024-03-23T11:45:35;3.80;;;1.93;;
4652;SDS011;9900;48.738;9.306;2024-03-23T11:48:07;7.53;;;1.90;;
4652;SDS011;9900;48.738;9.306;2024-03-23T11:50:36;3.53;;;1.70;;
4652;SDS011;9900;48.738;9.306;2024-03-23T11:53:07;1.77;;;1.57;;
4652;SDS011;9900;48.738;9.306;2024-03-23T11:55:39;3.00;;;1.60;;
4652;SDS011;9900;48.738;9.306;2024-03-23T11:58:08;2.63;;;1.50;;
4652;SDS011;9900;48.738;9.306;2024-03-23T12:00:37;6.83;;;1.40;;
4652;SDS011;9900;48.738;9.306;2024-03-23T12:03:05;2.10;;;1.33;;
4652;SDS011;9900;48.738;9.306;2024-03-23T12:05:32;3.00;;;1.37;;
4652;SDS011;9900;48.738;9.306;2024-03-23T12:08:19;3.37;;;1.60;;
4652;SDS011;9900;48.738;9.306;2024-03-23T12:10:48;3.57;;;1.33;;
4652;SDS011;9900;48.738;9.306;2024-03-23T12:13:17;3.17;;;1.03;;
4652;SDS011;9900;48.738;9.306;2024-03-23T12:15:47;4.07;;;1.87;;
4652;SDS011;9900;48.738;9.306;2024-03-23T12:18:16;3.20;;;1.60;;
4652;SDS011;9900;48.738;9.306;2024-03-23T12:20:43;3.50;;;1.47;;
4652;SDS011;9900;48.738;9.306;2024-03-23T12:23:11;4.87;;;1.40;;
4652;SDS011;9900;48.738;9.306;2024-03-23T12:25:39;6.97;;;2.07;;
4652;SDS011;9900;48.738;9.306;2024-03-23T12:28:07;5.27;;;1.63;;
4652;SDS011;9900;48.738;9.306;2024-03-23T12:30:35;2.57;;;1.30;;
4652;SDS011;9900;48.738;9.306;2024-03-23T12:33:04;6.13;;;2.10;;
4652;SDS011;9900;48.738;9.306;2024-03-23T12:35:32;5.53;;;1.83;;
4652;SDS011;9900;48.738;9.306;2024-03-23T12:38:00;10.07;;;2.07;;
4652;SDS011;9900;48.738;9.306;2024-03-23T12:40:27;6.17;;;1.50;;
4652;SDS011;9900;48.738;9.306;2024-03-23T12:42:55;7.33;;;1.97;;
4652;SDS011;9900;48.738;9.306;2024-03-23T12:45:22;2.63;;;1.10;;
4652;SDS011;9900;48.738;9.306;2024-03-23T12:47:50;3.90;;;1.77;;
4652;SDS011;9900;48.738;9.306;2024-03-23T12:50:20;4.23;;;1.43;;
4652;SDS011;9900;48.738;9.306;2024-03-23T12:52:48;5.13;;;1.50;;
4652;SDS011;9900;48.738;9.306;2024-03-23T12:55:15;6.50;;;1.67;;
4652;SDS011;9900;48.738;9.306;2024-03-23T12:57:43;8.03;;;1.57;;
4652;SDS011;9900;48.738;9.306;2024-03-23T13:00:10;4.83;;;1.83;;
4652;SDS011;9900;48.738;9.306;2024-03-23T13:02:39;12.13;;;2.17;;
4652;SDS011;9900;48.738;9.306;2024-03-23T13:05:07;8.43;;;2.00;;
4652;SDS011;9900;48.738;9.306;2024-03-23T13:07:37;6.33;;;1.87;;
4652;SDS011;9900;48.738;9.306;2024-03-23T13:10:05;7.40;;;1.80;;
4652;SDS011;9900;48.738;9.306;2024-03-23T13:12:33;7.40;;;2.50;;
4652;SDS011;9900;48.738;9.306;2024-03-23T13:15:00;7.30;;;1.70;;
4652;SDS011;9900;48.738;9.306;2024-03-23T13:17:29;4.87;;;1.60;;
4652;SDS011;9900;48.738;9.306;2024-03-23T13:19:55;9.40;;;2.60;;
4652;SDS011;9900;48.738;9.306;2024-03-23T13:22:23;7.23;;;2.27;;
4652;SDS011;9900;48.738;9.306;2024-03-23T13:24:51;6.87;;;1.90;;
4652;SDS011;9900;48.738;9.306;2024-03-23T13:27:19;4.67;;;1.73;;
4652;SDS011;9900;48.738;9.306;2024-03-23T13:29:46;6.30;;;2.20;;
4652;SDS011;9900;48.738;9.306;2024-03-23T13:32:14;9.53;;;1.90;;
4652;SDS011;9900;48.738;9.306;2024-03-23T13:34:41;7.93;;;1.93;;
4652;SDS011;9900;48.738;9.306;2024-03-23T13:37:09;4.90;;;1.60;;
4652;SDS011;9900;48.738;9.306;2024-03-23T13:39:36;3.87;;;1.40;;
4652;SDS011;9900;48.738;9.306;2024-03-23T13:42:05;4.70;;;0.90;;
4652;SDS011;9900;48.738;9.306;2024-03-23T13:44:34;5.30;;;1.70;;
4652;SDS011;9900;48.738;9.306;2024-03-23T13:47:02;3.13;;;1.40;;
4652;SDS011;9900;48.738;9.306;2024-03-23T13:49:30;3.60;;;1.33;;
4652;SDS011;9900;48.738;9.306;2024-03-23T13:51:58;4.97;;;1.20;;
4652;SDS011;9900;48.738;9.306;2024-03-23T13:54:26;2.43;;;1.20;;
4652;SDS011;9900;48.738;9.306;2024-03-23T13:56:54;5.13;;;1.20;;
4652;SDS011;9900;48.738;9.306;2024-03-23T13:59:23;1.53;;;0.70;;
4652;SDS011;9900;48.738;9.306;2024-03-23T14:01:51;1.53;;;0.90;;
4652;SDS011;9900;48.738;9.306;2024-03-23T14:04:18;1.67;;;1.07;;
4652;SDS011;9900;48.738;9.306;2024-03-23T14:06:46;1.70;;;0.90;;
4652;SDS011;9900;48.738;9.306;2024-03-23T14:09:13;2.60;;;1.10;;
4652;SDS011;9900;48.738;9.306;2024-03-23T14:11:41;1.40;;;0.80;;
4652;SDS011;9900;48.738;9.306;2024-03-23T14:14:09;1.90;;;0.80;;
4652;SDS011;9900;48.738;9.306;2024-03-23T14:16:39;4.60;;;1.10;;
4652;SDS011;9900;48.738;9.306;2024-03-23T14:19:06;3.63;;;1.40;;
4652;SDS011;9900;48.738;9.306;2024-03-23T14:21:33;7.40;;;1.50;;
4652;SDS011;9900;48.738;9.306;2024-03-23T14:24:01;4.03;;;1.23;;
4652;SDS011;9900;48.738;9.306;2024-03-23T14:26:29;6.40;;;1.30;;
4652;SDS011;9900;48.738;9.306;2024-03-23T14:28:56;1.70;;;1.00;;
4652;SDS011;9900;48.738;9.306;2024-03-23T14:31:23;4.27;;;1.53;;
4652;SDS011;9900;48.738;9.306;2024-03-23T14:33:52;4.50;;;0.93;;
4652;SDS011;9900;48.738;9.306;2024-03-23T14:36:20;2.17;;;1.17;;
4652;SDS011;9900;48.738;9.306;2024-03-23T14:38:47;2.53;;;1.10;;
4652;SDS011;9900;48.738;9.306;2024-03-23T14:41:15;2.70;;;1.00;;
4652;SDS011;9900;48.738;9.306;2024-03-23T14:43:42;3.17;;;1.23;;
4652;SDS011;9900;48.738;9.306;2024-03-23T14:46:13;1.10;;;0.90;;
4652;SDS011;9900;48.738;9.306;2024-03-23T14:48:41;1.00;;;0.70;;
4652;SDS011;9900;48.738;9.306;2024-03-23T14:51:12;1.70;;;0.70;;
4652;SDS011;9900;48.738;9.306;2024-03-23T14:53:39;1.20;;;0.80;;
4652;SDS011;9900;48.738;9.306;2024-03-23T14:56:08;3.50;;;0.80;;
4652;SDS011;9900;48.738;9.306;2024-03-23T14:58:36;5.43;;;0.90;;
4652;SDS011;9900;48.738;9.306;2024-03-23T15:01:05;1.47;;;0.97;;
4652;SDS011;9900;48.738;9.306;2024-03-23T15:03:35;1.57;;;1.00;;
4652;SDS011;9900;48.738;9.306;2024-03-23T15:06:05;3.20;;;1.17;;
4652;SDS011;9900;48.738;9.306;2024-03-23T15:08:34;3.27;;;0.97;;
4652;SDS011;9900;48.738;9.306;2024-03-23T15:11:02;0.97;;;0.80;;
4652;SDS011;9900;48.738;9.306;2024-03-23T15:13:31;5.00;;;0.80;;
4652;SDS011;9900;48.738;9.306;2024-03-23T15:15:59;2.87;;;1.43;;
4652;SDS011;9900;48.738;9.306;2024-03-23T15:18:26;2.63;;;1.00;;
4652;SDS011;9900;48.738;9.306;2024-03-23T15:20:55;1.73;;;1.10;;
4652;SDS011;9900;48.738;9.306;2024-03-23T15:23:22;4.10;;;1.90;;
4652;SDS011;9900;48.738;9.306;2024-03-23T15:25:55;2.27;;;0.90;;
4652;SDS011;9900;48.738;9.306;2024-03-23T15:28:22;2.20;;;0.90;;
4652;SDS011;9900;48.738;9.306;2024-03-23T15:30:50;3.13;;;0.90;;
4652;SDS011;9900;48.738;9.306;2024-03-23T15:33:17;1.33;;;0.70;;
4652;SDS011;9900;48.738;9.306;2024-03-23T15:35:45;3.17;;;0.87;;
4652;SDS011;9900;48.738;9.306;2024-03-23T15:38:12;2.23;;;1.20;;
4652;SDS011;9900;48.738;9.306;2024-03-23T15:40:39;1.27;;;0.80;;
4652;SDS011;9900;48.738;9.306;2024-03-23T15:43:08;1.83;;;0.90;;
4652;SDS011;9900;48.738;9.306;2024-03-23T15:45:35;2.50;;;0.80;;
4652;SDS011;9900;48.738;9.306;2024-03-23T15:48:02;6.77;;;0.97;;
4652;SDS011;9900;48.738;9.306;2024-03-23T15:50:31;2.33;;;0.80;;
4652;SDS011;9900;48.738;9.306;2024-03-23T15:52:58;2.57;;;1.00;;
4652;SDS011;9900;48.738;9.306;2024-03-23T15:55:26;3.13;;;1.00;;
4652;SDS011;9900;48.738;9.306;2024-03-23T15:57:52;4.17;;;0.67;;
4652;SDS011;9900;48.738;9.306;2024-03-23T16:00:22;2.80;;;0.80;;
4652;SDS011;9900;48.738;9.306;2024-03-23T16:02:48;1.00;;;0.80;;
4652;SDS011;9900;48.738;9.306;2024-03-23T16:05:16;5.00;;;0.90;;
4652;SDS011;9900;48.738;9.306;2024-03-23T16:07:44;3.87;;;1.00;;
4652;SDS011;9900;48.738;9.306;2024-03-23T16:10:12;4.17;;;1.00;;